sensor_id;sensor_type;location;lat;lon;timestamp;temperature;humidity
71142;DHT22;58808;59.366;17.970;2023-06-14T00:00:14;17.60;54.20
71142;DHT22;58808;59.366;17.970;2023-06-14T00:02:40;17.40;54.90
71142;DHT22;58808;59.366;17.970;2023-06-14T00:05:07;17.30;55.20
71142;DHT22;58808;59.366;17.970;2023-06-14T00:07:40;17.30;55.50
71142;DHT22;58808;59.366;17.970;2023-06-14T00:10:13;17.30;55.60
71142;DHT22;58808;59.366;17.970;2023-06-14T00:12:39;17.40;55.70
71142;DHT22;58808;59.366;17.970;2023-06-14T00:15:06;17.30;55.70
71142;DHT22;58808;59.366;17.970;2023-06-14T00:17:32;17.40;55.60
71142;DHT22;58808;59.366;17.970;2023-06-14T00:19:59;17.30;55.70
71142;DHT22;58808;59.366;17.970;2023-06-14T00:22:25;17.10;56.40
71142;DHT22;58808;59.366;17.970;2023-06-14T00:24:54;16.90;57.10
71142;DHT22;58808;59.366;17.970;2023-06-14T00:27:20;16.80;57.50
71142;DHT22;58808;59.366;17.970;2023-06-14T00:29:46;16.80;57.90
71142;DHT22;58808;59.366;17.970;2023-06-14T00:32:11;16.80;58.70
71142;DHT22;58808;59.366;17.970;2023-06-14T00:34:37;16.90;57.90
71142;DHT22;58808;59.366;17.970;2023-06-14T00:37:03;17.00;57.80
71142;DHT22;58808;59.366;17.970;2023-06-14T00:39:28;17.10;57.80
71142;DHT22;58808;59.366;17.970;2023-06-14T00:41:54;17.10;57.80
71142;DHT22;58808;59.366;17.970;2023-06-14T00:44:20;17.10;58.40
71142;DHT22;58808;59.366;17.970;2023-06-14T00:46:47;17.20;57.90
71142;DHT22;58808;59.366;17.970;2023-06-14T00:49:14;16.90;58.50
71142;DHT22;58808;59.366;17.970;2023-06-14T00:51:42;16.80;58.80
71142;DHT22;58808;59.366;17.970;2023-06-14T00:54:08;16.70;59.60
71142;DHT22;58808;59.366;17.970;2023-06-14T00:56:36;16.60;59.80
71142;DHT22;58808;59.366;17.970;2023-06-14T00:59:03;16.60;59.80
71142;DHT22;58808;59.366;17.970;2023-06-14T01:01:30;16.60;60.00
71142;DHT22;58808;59.366;17.970;2023-06-14T01:03:58;16.60;60.10
71142;DHT22;58808;59.366;17.970;2023-06-14T01:12:10;17.00;59.80
71142;DHT22;58808;59.366;17.970;2023-06-14T01:14:38;17.00;59.90
71142;DHT22;58808;59.366;17.970;2023-06-14T01:17:04;16.90;60.30
71142;DHT22;58808;59.366;17.970;2023-06-14T01:19:31;17.00;60.30
71142;DHT22;58808;59.366;17.970;2023-06-14T01:22:00;17.10;60.10
71142;DHT22;58808;59.366;17.970;2023-06-14T01:24:26;17.00;60.60
71142;DHT22;58808;59.366;17.970;2023-06-14T01:26:58;16.90;60.90
71142;DHT22;58808;59.366;17.970;2023-06-14T01:29:25;16.70;61.30
71142;DHT22;58808;59.366;17.970;2023-06-14T01:31:53;16.70;61.90
71142;DHT22;58808;59.366;17.970;2023-06-14T01:34:19;16.60;62.40
71142;DHT22;58808;59.366;17.970;2023-06-14T01:36:46;16.50;62.80
71142;DHT22;58808;59.366;17.970;2023-06-14T01:39:14;16.50;63.10
71142;DHT22;58808;59.366;17.970;2023-06-14T01:41:41;16.50;63.40
71142;DHT22;58808;59.366;17.970;2023-06-14T01:44:08;16.50;63.60
71142;DHT22;58808;59.366;17.970;2023-06-14T01:46:35;16.30;64.40
71142;DHT22;58808;59.366;17.970;2023-06-14T01:49:01;16.40;64.60
71142;DHT22;58808;59.366;17.970;2023-06-14T01:51:27;16.30;65.10
71142;DHT22;58808;59.366;17.970;2023-06-14T01:53:53;16.30;65.30
71142;DHT22;58808;59.366;17.970;2023-06-14T01:56:19;16.20;66.80
71142;DHT22;58808;59.366;17.970;2023-06-14T01:58:45;16.10;66.20
71142;DHT22;58808;59.366;17.970;2023-06-14T02:01:11;16.20;67.20
71142;DHT22;58808;59.366;17.970;2023-06-14T02:03:38;16.30;67.90
71142;DHT22;58808;59.366;17.970;2023-06-14T02:06:04;16.40;68.20
71142;DHT22;58808;59.366;17.970;2023-06-14T02:08:30;16.40;68.30
71142;DHT22;58808;59.366;17.970;2023-06-14T02:10:55;16.40;68.60
71142;DHT22;58808;59.366;17.970;2023-06-14T02:13:21;16.30;69.40
71142;DHT22;58808;59.366;17.970;2023-06-14T02:15:47;16.20;69.50
71142;DHT22;58808;59.366;17.970;2023-06-14T02:18:16;16.30;70.10
71142;DHT22;58808;59.366;17.970;2023-06-14T02:20:42;16.40;70.10
71142;DHT22;58808;59.366;17.970;2023-06-14T02:23:07;16.40;70.30
71142;DHT22;58808;59.366;17.970;2023-06-14T02:25:33;16.50;70.40
71142;DHT22;58808;59.366;17.970;2023-06-14T02:27:59;16.50;70.70
71142;DHT22;58808;59.366;17.970;2023-06-14T02:30:25;16.40;71.60
71142;DHT22;58808;59.366;17.970;2023-06-14T02:32:51;16.50;71.80
71142;DHT22;58808;59.366;17.970;2023-06-14T02:35:18;16.50;71.70
71142;DHT22;58808;59.366;17.970;2023-06-14T02:37:46;16.50;72.00
71142;DHT22;58808;59.366;17.970;2023-06-14T02:40:12;16.50;72.60
71142;DHT22;58808;59.366;17.970;2023-06-14T02:42:37;16.50;73.20
71142;DHT22;58808;59.366;17.970;2023-06-14T02:45:03;16.40;74.20
71142;DHT22;58808;59.366;17.970;2023-06-14T02:47:29;16.40;75.00
71142;DHT22;58808;59.366;17.970;2023-06-14T02:49:55;16.30;76.00
71142;DHT22;58808;59.366;17.970;2023-06-14T02:52:21;16.20;77.00
71142;DHT22;58808;59.366;17.970;2023-06-14T02:54:47;16.20;78.00
71142;DHT22;58808;59.366;17.970;2023-06-14T02:57:13;16.10;79.10
71142;DHT22;58808;59.366;17.970;2023-06-14T02:59:38;16.10;79.90
71142;DHT22;58808;59.366;17.970;2023-06-14T03:02:04;16.20;79.40
71142;DHT22;58808;59.366;17.970;2023-06-14T03:04:30;16.10;79.40
71142;DHT22;58808;59.366;17.970;2023-06-14T03:07:03;16.10;80.10
71142;DHT22;58808;59.366;17.970;2023-06-14T03:09:38;16.10;79.40
71142;DHT22;58808;59.366;17.970;2023-06-14T03:12:05;16.00;80.20
71142;DHT22;58808;59.366;17.970;2023-06-14T03:14:32;16.10;80.20
71142;DHT22;58808;59.366;17.970;2023-06-14T03:16:58;16.20;79.80
71142;DHT22;58808;59.366;17.970;2023-06-14T03:19:24;16.30;79.50
71142;DHT22;58808;59.366;17.970;2023-06-14T03:21:52;16.40;79.00
71142;DHT22;58808;59.366;17.970;2023-06-14T03:24:17;16.50;78.90
71142;DHT22;58808;59.366;17.970;2023-06-14T03:26:43;16.50;78.70
71142;DHT22;58808;59.366;17.970;2023-06-14T03:29:09;16.60;78.80
71142;DHT22;58808;59.366;17.970;2023-06-14T03:31:35;16.60;78.80
71142;DHT22;58808;59.366;17.970;2023-06-14T03:34:01;16.70;78.70
71142;DHT22;58808;59.366;17.970;2023-06-14T03:36:27;16.60;79.00
71142;DHT22;58808;59.366;17.970;2023-06-14T03:38:56;16.60;79.70
71142;DHT22;58808;59.366;17.970;2023-06-14T03:41:21;16.60;80.20
71142;DHT22;58808;59.366;17.970;2023-06-14T03:43:47;16.70;80.50
71142;DHT22;58808;59.366;17.970;2023-06-14T03:46:13;16.70;81.00
71142;DHT22;58808;59.366;17.970;2023-06-14T03:48:38;16.60;82.10
71142;DHT22;58808;59.366;17.970;2023-06-14T03:51:04;16.60;82.20
71142;DHT22;58808;59.366;17.970;2023-06-14T03:53:30;16.60;82.20
71142;DHT22;58808;59.366;17.970;2023-06-14T03:55:56;16.70;82.50
71142;DHT22;58808;59.366;17.970;2023-06-14T03:58:22;16.70;83.00
71142;DHT22;58808;59.366;17.970;2023-06-14T04:00:48;16.60;84.20
71142;DHT22;58808;59.366;17.970;2023-06-14T04:03:14;16.50;84.90
71142;DHT22;58808;59.366;17.970;2023-06-14T04:05:41;16.30;85.40
71142;DHT22;58808;59.366;17.970;2023-06-14T04:08:14;16.20;87.40
71142;DHT22;58808;59.366;17.970;2023-06-14T04:10:41;16.20;87.60
71142;DHT22;58808;59.366;17.970;2023-06-14T04:13:07;16.20;87.70
71142;DHT22;58808;59.366;17.970;2023-06-14T04:15:32;16.30;87.30
71142;DHT22;58808;59.366;17.970;2023-06-14T04:17:59;16.40;86.80
71142;DHT22;58808;59.366;17.970;2023-06-14T04:20:25;16.50;86.80
71142;DHT22;58808;59.366;17.970;2023-06-14T04:22:52;16.60;86.80
71142;DHT22;58808;59.366;17.970;2023-06-14T04:25:18;16.70;86.20
71142;DHT22;58808;59.366;17.970;2023-06-14T04:27:44;16.80;85.70
71142;DHT22;58808;59.366;17.970;2023-06-14T04:30:10;16.80;86.10
71142;DHT22;58808;59.366;17.970;2023-06-14T04:32:36;16.90;86.70
71142;DHT22;58808;59.366;17.970;2023-06-14T04:35:08;16.90;86.10
71142;DHT22;58808;59.366;17.970;2023-06-14T04:37:34;16.90;85.70
71142;DHT22;58808;59.366;17.970;2023-06-14T04:40:00;17.00;85.90
71142;DHT22;58808;59.366;17.970;2023-06-14T04:42:26;17.10;85.60
71142;DHT22;58808;59.366;17.970;2023-06-14T04:44:55;17.20;84.80
71142;DHT22;58808;59.366;17.970;2023-06-14T04:47:21;17.30;83.40
71142;DHT22;58808;59.366;17.970;2023-06-14T04:49:47;17.30;83.20
71142;DHT22;58808;59.366;17.970;2023-06-14T04:52:13;17.40;83.00
71142;DHT22;58808;59.366;17.970;2023-06-14T04:54:39;17.50;83.10
71142;DHT22;58808;59.366;17.970;2023-06-14T04:57:09;17.60;82.90
71142;DHT22;58808;59.366;17.970;2023-06-14T04:59:40;17.60;82.50
71142;DHT22;58808;59.366;17.970;2023-06-14T05:02:06;17.70;82.40
71142;DHT22;58808;59.366;17.970;2023-06-14T05:04:32;17.80;82.20
71142;DHT22;58808;59.366;17.970;2023-06-14T05:06:58;17.80;81.20
71142;DHT22;58808;59.366;17.970;2023-06-14T05:09:24;17.90;80.40
71142;DHT22;58808;59.366;17.970;2023-06-14T05:11:49;17.90;79.80
71142;DHT22;58808;59.366;17.970;2023-06-14T05:14:15;18.00;80.30
71142;DHT22;58808;59.366;17.970;2023-06-14T05:16:41;18.00;79.80
71142;DHT22;58808;59.366;17.970;2023-06-14T05:19:08;18.10;79.90
71142;DHT22;58808;59.366;17.970;2023-06-14T05:21:35;18.20;79.80
71142;DHT22;58808;59.366;17.970;2023-06-14T05:24:02;18.20;78.60
71142;DHT22;58808;59.366;17.970;2023-06-14T05:26:28;18.40;76.20
71142;DHT22;58808;59.366;17.970;2023-06-14T05:28:58;18.40;76.60
71142;DHT22;58808;59.366;17.970;2023-06-14T05:31:24;18.50;75.30
71142;DHT22;58808;59.366;17.970;2023-06-14T05:33:51;18.60;75.00
71142;DHT22;58808;59.366;17.970;2023-06-14T05:36:17;18.70;74.00
71142;DHT22;58808;59.366;17.970;2023-06-14T05:38:43;18.80;73.30
71142;DHT22;58808;59.366;17.970;2023-06-14T05:41:09;18.90;73.00
71142;DHT22;58808;59.366;17.970;2023-06-14T05:43:35;18.90;73.40
71142;DHT22;58808;59.366;17.970;2023-06-14T05:46:00;18.90;73.90
71142;DHT22;58808;59.366;17.970;2023-06-14T05:48:26;19.00;75.10
71142;DHT22;58808;59.366;17.970;2023-06-14T05:50:52;19.00;76.00
71142;DHT22;58808;59.366;17.970;2023-06-14T05:53:17;19.00;73.70
71142;DHT22;58808;59.366;17.970;2023-06-14T05:55:43;19.00;72.50
71142;DHT22;58808;59.366;17.970;2023-06-14T05:58:09;19.10;72.90
71142;DHT22;58808;59.366;17.970;2023-06-14T06:00:36;19.00;72.30
71142;DHT22;58808;59.366;17.970;2023-06-14T06:03:02;19.10;70.50
71142;DHT22;58808;59.366;17.970;2023-06-14T06:05:27;19.20;69.10
71142;DHT22;58808;59.366;17.970;2023-06-14T06:07:53;19.20;68.60
71142;DHT22;58808;59.366;17.970;2023-06-14T06:10:19;19.30;68.90
71142;DHT22;58808;59.366;17.970;2023-06-14T06:12:44;19.30;69.60
71142;DHT22;58808;59.366;17.970;2023-06-14T06:15:12;19.40;70.20
71142;DHT22;58808;59.366;17.970;2023-06-14T06:17:38;19.40;70.20
71142;DHT22;58808;59.366;17.970;2023-06-14T06:20:05;19.40;69.10
71142;DHT22;58808;59.366;17.970;2023-06-14T06:22:34;19.50;68.90
71142;DHT22;58808;59.366;17.970;2023-06-14T06:24:59;19.50;69.80
71142;DHT22;58808;59.366;17.970;2023-06-14T06:27:25;19.50;70.30
71142;DHT22;58808;59.366;17.970;2023-06-14T06:29:51;19.50;69.00
71142;DHT22;58808;59.366;17.970;2023-06-14T06:32:17;19.60;68.70
71142;DHT22;58808;59.366;17.970;2023-06-14T06:34:43;19.70;68.10
71142;DHT22;58808;59.366;17.970;2023-06-14T06:37:09;19.70;65.80
71142;DHT22;58808;59.366;17.970;2023-06-14T06:39:35;19.80;65.80
71142;DHT22;58808;59.366;17.970;2023-06-14T06:42:00;19.90;64.00
71142;DHT22;58808;59.366;17.970;2023-06-14T06:44:26;20.00;63.60
71142;DHT22;58808;59.366;17.970;2023-06-14T06:46:52;20.20;62.20
71142;DHT22;58808;59.366;17.970;2023-06-14T06:49:17;20.20;62.80
71142;DHT22;58808;59.366;17.970;2023-06-14T06:51:52;20.30;62.40
71142;DHT22;58808;59.366;17.970;2023-06-14T06:54:24;20.40;61.90
71142;DHT22;58808;59.366;17.970;2023-06-14T06:56:50;20.40;62.10
71142;DHT22;58808;59.366;17.970;2023-06-14T06:59:15;20.60;60.60
71142;DHT22;58808;59.366;17.970;2023-06-14T07:01:42;20.70;59.60
71142;DHT22;58808;59.366;17.970;2023-06-14T07:04:08;20.80;59.30
71142;DHT22;58808;59.366;17.970;2023-06-14T07:06:33;21.00;56.40
71142;DHT22;58808;59.366;17.970;2023-06-14T07:08:59;21.10;56.10
71142;DHT22;58808;59.366;17.970;2023-06-14T07:11:27;21.10;56.80
71142;DHT22;58808;59.366;17.970;2023-06-14T07:13:53;21.20;56.10
71142;DHT22;58808;59.366;17.970;2023-06-14T07:16:18;21.20;57.00
71142;DHT22;58808;59.366;17.970;2023-06-14T07:18:44;21.30;56.70
71142;DHT22;58808;59.366;17.970;2023-06-14T07:21:10;21.50;53.10
71142;DHT22;58808;59.366;17.970;2023-06-14T07:23:35;21.70;51.20
71142;DHT22;58808;59.366;17.970;2023-06-14T07:26:01;22.00;50.50
71142;DHT22;58808;59.366;17.970;2023-06-14T07:28:27;22.20;48.40
71142;DHT22;58808;59.366;17.970;2023-06-14T07:30:52;22.50;48.10
71142;DHT22;58808;59.366;17.970;2023-06-14T07:33:18;22.70;48.00
71142;DHT22;58808;59.366;17.970;2023-06-14T07:35:44;22.80;48.20
71142;DHT22;58808;59.366;17.970;2023-06-14T07:38:11;22.90;47.80
71142;DHT22;58808;59.366;17.970;2023-06-14T07:40:37;23.10;46.40
71142;DHT22;58808;59.366;17.970;2023-06-14T07:43:02;23.10;44.80
71142;DHT22;58808;59.366;17.970;2023-06-14T07:45:28;23.40;41.80
71142;DHT22;58808;59.366;17.970;2023-06-14T07:47:54;23.60;40.90
71142;DHT22;58808;59.366;17.970;2023-06-14T07:50:20;23.70;38.60
71142;DHT22;58808;59.366;17.970;2023-06-14T07:52:46;23.90;34.70
71142;DHT22;58808;59.366;17.970;2023-06-14T07:55:13;24.00;33.10
71142;DHT22;58808;59.366;17.970;2023-06-14T07:57:40;24.20;30.80
71142;DHT22;58808;59.366;17.970;2023-06-14T08:00:06;24.30;31.50
71142;DHT22;58808;59.366;17.970;2023-06-14T08:02:32;24.40;30.60
71142;DHT22;58808;59.366;17.970;2023-06-14T08:04:58;24.50;31.20
71142;DHT22;58808;59.366;17.970;2023-06-14T08:07:24;24.50;31.30
71142;DHT22;58808;59.366;17.970;2023-06-14T08:09:50;24.60;31.50
71142;DHT22;58808;59.366;17.970;2023-06-14T08:12:15;24.70;32.50
71142;DHT22;58808;59.366;17.970;2023-06-14T08:14:42;24.90;33.20
71142;DHT22;58808;59.366;17.970;2023-06-14T08:17:08;25.00;32.50
71142;DHT22;58808;59.366;17.970;2023-06-14T08:19:33;25.10;32.20
71142;DHT22;58808;59.366;17.970;2023-06-14T08:21:59;25.30;29.80
71142;DHT22;58808;59.366;17.970;2023-06-14T08:24:25;25.30;30.40
71142;DHT22;58808;59.366;17.970;2023-06-14T08:26:54;25.40;29.90
71142;DHT22;58808;59.366;17.970;2023-06-14T08:29:19;25.50;29.20
71142;DHT22;58808;59.366;17.970;2023-06-14T08:31:46;25.50;30.10
71142;DHT22;58808;59.366;17.970;2023-06-14T08:34:12;25.60;29.90
71142;DHT22;58808;59.366;17.970;2023-06-14T08:36:37;25.70;30.20
71142;DHT22;58808;59.366;17.970;2023-06-14T08:39:03;25.80;30.70
71142;DHT22;58808;59.366;17.970;2023-06-14T08:41:29;25.90;32.80
71142;DHT22;58808;59.366;17.970;2023-06-14T08:43:56;26.00;33.70
71142;DHT22;58808;59.366;17.970;2023-06-14T08:46:24;26.10;32.90
71142;DHT22;58808;59.366;17.970;2023-06-14T08:48:54;26.10;33.10
71142;DHT22;58808;59.366;17.970;2023-06-14T08:51:21;26.10;33.80
71142;DHT22;58808;59.366;17.970;2023-06-14T08:53:54;26.20;36.00
71142;DHT22;58808;59.366;17.970;2023-06-14T08:56:26;26.30;36.80
71142;DHT22;58808;59.366;17.970;2023-06-14T08:58:56;26.50;37.40
71142;DHT22;58808;59.366;17.970;2023-06-14T09:01:23;26.60;36.70
71142;DHT22;58808;59.366;17.970;2023-06-14T09:03:49;26.70;35.80
71142;DHT22;58808;59.366;17.970;2023-06-14T09:06:16;26.80;36.70
71142;DHT22;58808;59.366;17.970;2023-06-14T09:08:46;26.80;37.40
71142;DHT22;58808;59.366;17.970;2023-06-14T09:11:13;26.70;37.20
71142;DHT22;58808;59.366;17.970;2023-06-14T09:13:40;26.40;37.80
71142;DHT22;58808;59.366;17.970;2023-06-14T09:16:09;26.20;38.60
71142;DHT22;58808;59.366;17.970;2023-06-14T09:18:40;26.00;39.20
71142;DHT22;58808;59.366;17.970;2023-06-14T09:21:07;25.80;39.20
71142;DHT22;58808;59.366;17.970;2023-06-14T09:23:39;25.80;40.40
71142;DHT22;58808;59.366;17.970;2023-06-14T09:26:19;25.60;40.10
71142;DHT22;58808;59.366;17.970;2023-06-14T09:28:47;25.60;40.00
71142;DHT22;58808;59.366;17.970;2023-06-14T09:31:17;25.50;39.80
71142;DHT22;58808;59.366;17.970;2023-06-14T09:33:50;25.70;40.70
71142;DHT22;58808;59.366;17.970;2023-06-14T09:36:22;25.80;40.40
71142;DHT22;58808;59.366;17.970;2023-06-14T09:38:56;26.20;40.20
71142;DHT22;58808;59.366;17.970;2023-06-14T09:41:39;26.30;38.70
71142;DHT22;58808;59.366;17.970;2023-06-14T09:44:07;26.20;38.90
71142;DHT22;58808;59.366;17.970;2023-06-14T09:46:34;26.10;38.70
71142;DHT22;58808;59.366;17.970;2023-06-14T09:49:02;25.90;38.50
71142;DHT22;58808;59.366;17.970;2023-06-14T09:51:28;25.90;38.80
71142;DHT22;58808;59.366;17.970;2023-06-14T09:54:00;25.90;38.80
71142;DHT22;58808;59.366;17.970;2023-06-14T09:56:38;25.90;38.80
71142;DHT22;58808;59.366;17.970;2023-06-14T09:59:06;26.00;38.40
71142;DHT22;58808;59.366;17.970;2023-06-14T10:01:34;26.10;39.40
71142;DHT22;58808;59.366;17.970;2023-06-14T10:04:10;26.10;38.90
71142;DHT22;58808;59.366;17.970;2023-06-14T10:06:38;26.00;38.40
71142;DHT22;58808;59.366;17.970;2023-06-14T10:09:09;26.00;39.40
71142;DHT22;58808;59.366;17.970;2023-06-14T10:11:36;26.10;38.90
71142;DHT22;58808;59.366;17.970;2023-06-14T10:14:05;26.30;39.30
71142;DHT22;58808;59.366;17.970;2023-06-14T10:19:46;26.30;38.00
71142;DHT22;58808;59.366;17.970;2023-06-14T10:22:24;26.10;38.00
71142;DHT22;58808;59.366;17.970;2023-06-14T10:24:51;26.00;39.70
71142;DHT22;58808;59.366;17.970;2023-06-14T10:27:17;26.10;38.70
71142;DHT22;58808;59.366;17.970;2023-06-14T10:32:24;26.00;38.50
71142;DHT22;58808;59.366;17.970;2023-06-14T10:35:06;25.80;38.50
71142;DHT22;58808;59.366;17.970;2023-06-14T10:37:32;26.00;39.00
71142;DHT22;58808;59.366;17.970;2023-06-14T10:39:58;26.30;38.90
71142;DHT22;58808;59.366;17.970;2023-06-14T10:42:29;26.60;37.10
71142;DHT22;58808;59.366;17.970;2023-06-14T10:44:57;26.60;36.80
71142;DHT22;58808;59.366;17.970;2023-06-14T10:49:55;26.90;37.10
71142;DHT22;58808;59.366;17.970;2023-06-14T10:52:24;27.20;36.30
71142;DHT22;58808;59.366;17.970;2023-06-14T10:57:36;27.40;36.10
71142;DHT22;58808;59.366;17.970;2023-06-14T11:00:03;27.40;36.10
71142;DHT22;58808;59.366;17.970;2023-06-14T11:05:26;27.60;35.90
71142;DHT22;58808;59.366;17.970;2023-06-14T11:08:27;27.90;35.50
71142;DHT22;58808;59.366;17.970;2023-06-14T11:10:50;28.20;33.50
71142;DHT22;58808;59.366;17.970;2023-06-14T11:13:17;28.00;32.50
71142;DHT22;58808;59.366;17.970;2023-06-14T11:15:45;27.90;33.90
71142;DHT22;58808;59.366;17.970;2023-06-14T11:18:15;28.00;34.00
71142;DHT22;58808;59.366;17.970;2023-06-14T11:20:42;27.90;33.00
71142;DHT22;58808;59.366;17.970;2023-06-14T11:23:08;27.90;33.00
71142;DHT22;58808;59.366;17.970;2023-06-14T11:25:33;27.90;33.30
71142;DHT22;58808;59.366;17.970;2023-06-14T11:27:59;28.00;33.40
71142;DHT22;58808;59.366;17.970;2023-06-14T11:30:25;28.10;31.70
71142;DHT22;58808;59.366;17.970;2023-06-14T11:32:52;28.20;31.60
71142;DHT22;58808;59.366;17.970;2023-06-14T11:35:19;28.20;32.00
71142;DHT22;58808;59.366;17.970;2023-06-14T11:37:48;28.30;32.70
71142;DHT22;58808;59.366;17.970;2023-06-14T11:40:15;28.30;32.40
71142;DHT22;58808;59.366;17.970;2023-06-14T11:42:41;28.50;32.00
71142;DHT22;58808;59.366;17.970;2023-06-14T11:45:08;28.60;32.20
71142;DHT22;58808;59.366;17.970;2023-06-14T11:47:36;28.80;31.60
71142;DHT22;58808;59.366;17.970;2023-06-14T11:50:03;28.70;31.60
71142;DHT22;58808;59.366;17.970;2023-06-14T11:52:30;28.80;31.90
71142;DHT22;58808;59.366;17.970;2023-06-14T11:54:56;28.90;31.60
71142;DHT22;58808;59.366;17.970;2023-06-14T11:57:22;29.10;31.70
71142;DHT22;58808;59.366;17.970;2023-06-14T11:59:48;29.30;32.00
71142;DHT22;58808;59.366;17.970;2023-06-14T12:02:18;29.40;31.20
71142;DHT22;58808;59.366;17.970;2023-06-14T12:04:46;29.50;30.60
71142;DHT22;58808;59.366;17.970;2023-06-14T12:07:13;29.40;30.90
71142;DHT22;58808;59.366;17.970;2023-06-14T12:12:37;29.30;30.30
71142;DHT22;58808;59.366;17.970;2023-06-14T12:15:08;29.20;30.50
71142;DHT22;58808;59.366;17.970;2023-06-14T12:17:35;29.00;30.30
71142;DHT22;58808;59.366;17.970;2023-06-14T12:20:11;28.70;30.30
71142;DHT22;58808;59.366;17.970;2023-06-14T12:22:46;28.40;30.60
71142;DHT22;58808;59.366;17.970;2023-06-14T12:25:23;28.30;31.50
71142;DHT22;58808;59.366;17.970;2023-06-14T12:27:53;28.30;32.40
71142;DHT22;58808;59.366;17.970;2023-06-14T12:30:19;28.50;31.20
71142;DHT22;58808;59.366;17.970;2023-06-14T12:32:45;28.80;32.00
71142;DHT22;58808;59.366;17.970;2023-06-14T12:35:11;29.10;30.40
71142;DHT22;58808;59.366;17.970;2023-06-14T12:37:36;29.30;30.40
71142;DHT22;58808;59.366;17.970;2023-06-14T12:40:03;29.40;30.30
71142;DHT22;58808;59.366;17.970;2023-06-14T12:42:31;29.40;30.50
71142;DHT22;58808;59.366;17.970;2023-06-14T12:44:57;29.40;29.30
71142;DHT22;58808;59.366;17.970;2023-06-14T12:47:22;29.50;29.80
71142;DHT22;58808;59.366;17.970;2023-06-14T12:49:48;29.60;29.20
71142;DHT22;58808;59.366;17.970;2023-06-14T12:52:14;29.70;29.30
71142;DHT22;58808;59.366;17.970;2023-06-14T12:54:39;29.80;29.10
71142;DHT22;58808;59.366;17.970;2023-06-14T12:57:06;29.70;29.30
71142;DHT22;58808;59.366;17.970;2023-06-14T12:59:32;29.80;29.80
71142;DHT22;58808;59.366;17.970;2023-06-14T13:02:10;29.90;29.30
71142;DHT22;58808;59.366;17.970;2023-06-14T13:04:36;29.80;28.70
71142;DHT22;58808;59.366;17.970;2023-06-14T13:07:02;29.80;29.30
71142;DHT22;58808;59.366;17.970;2023-06-14T13:09:27;29.50;29.20
71142;DHT22;58808;59.366;17.970;2023-06-14T13:11:53;29.70;29.90
71142;DHT22;58808;59.366;17.970;2023-06-14T13:14:19;29.90;29.00
71142;DHT22;58808;59.366;17.970;2023-06-14T13:16:45;30.00;28.70
71142;DHT22;58808;59.366;17.970;2023-06-14T13:19:11;30.10;28.30
71142;DHT22;58808;59.366;17.970;2023-06-14T13:21:36;30.10;28.40
71142;DHT22;58808;59.366;17.970;2023-06-14T13:24:02;30.10;28.60
71142;DHT22;58808;59.366;17.970;2023-06-14T13:26:28;30.00;28.80
71142;DHT22;58808;59.366;17.970;2023-06-14T13:28:54;30.00;28.40
71142;DHT22;58808;59.366;17.970;2023-06-14T13:31:19;29.90;28.70
71142;DHT22;58808;59.366;17.970;2023-06-14T13:33:45;29.90;28.60
71142;DHT22;58808;59.366;17.970;2023-06-14T13:36:11;30.00;28.70
71142;DHT22;58808;59.366;17.970;2023-06-14T13:38:37;30.10;28.60
71142;DHT22;58808;59.366;17.970;2023-06-14T13:41:02;30.30;28.90
71142;DHT22;58808;59.366;17.970;2023-06-14T13:43:28;30.40;28.40
71142;DHT22;58808;59.366;17.970;2023-06-14T13:45:54;30.60;28.10
71142;DHT22;58808;59.366;17.970;2023-06-14T13:48:19;30.60;27.70
71142;DHT22;58808;59.366;17.970;2023-06-14T13:50:45;30.50;27.80
71142;DHT22;58808;59.366;17.970;2023-06-14T13:53:11;30.40;28.20
71142;DHT22;58808;59.366;17.970;2023-06-14T13:55:37;30.40;27.80
71142;DHT22;58808;59.366;17.970;2023-06-14T13:58:03;30.40;27.80
71142;DHT22;58808;59.366;17.970;2023-06-14T14:00:28;30.50;28.00
71142;DHT22;58808;59.366;17.970;2023-06-14T14:02:54;30.50;27.60
71142;DHT22;58808;59.366;17.970;2023-06-14T14:05:20;30.60;27.80
71142;DHT22;58808;59.366;17.970;2023-06-14T14:07:46;30.60;27.70
71142;DHT22;58808;59.366;17.970;2023-06-14T14:10:12;30.70;27.80
71142;DHT22;58808;59.366;17.970;2023-06-14T14:12:39;30.60;27.00
71142;DHT22;58808;59.366;17.970;2023-06-14T14:15:05;30.60;27.70
71142;DHT22;58808;59.366;17.970;2023-06-14T14:17:37;30.50;27.60
71142;DHT22;58808;59.366;17.970;2023-06-14T14:20:03;30.30;27.50
71142;DHT22;58808;59.366;17.970;2023-06-14T14:22:29;30.40;28.00
71142;DHT22;58808;59.366;17.970;2023-06-14T14:24:54;30.50;27.90
71142;DHT22;58808;59.366;17.970;2023-06-14T14:27:20;30.40;27.60
71142;DHT22;58808;59.366;17.970;2023-06-14T14:29:46;30.30;27.60
71142;DHT22;58808;59.366;17.970;2023-06-14T14:32:12;30.40;27.80
71142;DHT22;58808;59.366;17.970;2023-06-14T14:34:39;30.40;27.70
71142;DHT22;58808;59.366;17.970;2023-06-14T14:37:05;30.40;27.40
71142;DHT22;58808;59.366;17.970;2023-06-14T14:39:31;30.30;27.30
71142;DHT22;58808;59.366;17.970;2023-06-14T14:41:57;30.10;27.30
71142;DHT22;58808;59.366;17.970;2023-06-14T14:44:22;30.00;27.50
71142;DHT22;58808;59.366;17.970;2023-06-14T14:46:48;30.00;27.80
71142;DHT22;58808;59.366;17.970;2023-06-14T14:49:14;29.90;28.40
71142;DHT22;58808;59.366;17.970;2023-06-14T14:51:39;29.90;27.70
71142;DHT22;58808;59.366;17.970;2023-06-14T14:54:06;29.80;28.20
71142;DHT22;58808;59.366;17.970;2023-06-14T14:56:32;29.60;27.80
71142;DHT22;58808;59.366;17.970;2023-06-14T14:58:58;29.50;28.00
71142;DHT22;58808;59.366;17.970;2023-06-14T15:01:23;29.40;28.10
71142;DHT22;58808;59.366;17.970;2023-06-14T15:03:49;29.50;28.20
71142;DHT22;58808;59.366;17.970;2023-06-14T15:06:15;29.40;28.10
71142;DHT22;58808;59.366;17.970;2023-06-14T15:08:40;29.40;28.40
71142;DHT22;58808;59.366;17.970;2023-06-14T15:11:06;29.40;28.00
71142;DHT22;58808;59.366;17.970;2023-06-14T15:13:32;29.20;27.80
71142;DHT22;58808;59.366;17.970;2023-06-14T15:15:58;29.10;28.30
71142;DHT22;58808;59.366;17.970;2023-06-14T15:18:23;28.90;28.60
71142;DHT22;58808;59.366;17.970;2023-06-14T15:20:49;28.80;28.60
71142;DHT22;58808;59.366;17.970;2023-06-14T15:23:15;28.90;28.70
71142;DHT22;58808;59.366;17.970;2023-06-14T15:25:45;28.90;28.70
71142;DHT22;58808;59.366;17.970;2023-06-14T15:28:12;28.90;28.80
71142;DHT22;58808;59.366;17.970;2023-06-14T15:30:38;28.80;28.90
71142;DHT22;58808;59.366;17.970;2023-06-14T15:33:04;28.70;28.90
71142;DHT22;58808;59.366;17.970;2023-06-14T15:35:30;28.50;29.10